createdAt,value
2019-03-24T00:04:33.477Z,70.48
2019-03-24T00:07:03.443Z,70.56
2019-03-24T00:09:33.363Z,70.67
2019-03-24T00:12:03.382Z,70.66
2019-03-24T00:14:33.294Z,70.68
2019-03-24T00:17:03.204Z,70.59
2019-03-24T00:19:33.332Z,70.45
2019-03-24T00:22:03.348Z,70.37
2019-03-24T00:24:33.260Z,70.34
2019-03-24T00:27:03.353Z,70.33
2019-03-24T00:29:33.395Z,70.44
2019-03-24T00:32:03.386Z,70.42
2019-03-24T00:34:52.167Z,69.95
2019-03-24T00:40:16.370Z,70.40
2019-03-24T00:42:46.288Z,70.45
2019-03-24T00:45:16.447Z,70.12
2019-03-24T00:47:50.676Z,70.60
2019-03-24T00:50:20.600Z,70.60
2019-03-24T00:52:50.540Z,70.48
2019-03-24T00:55:20.557Z,70.34
2019-03-24T01:00:45.631Z,70.16
2019-03-24T01:03:40.507Z,70.18
2019-03-24T01:06:10.459Z,69.88
2019-03-24T01:08:40.719Z,70.13
2019-03-24T01:11:29.558Z,70.05
2019-03-24T01:16:54.320Z,70.03
2019-03-24T01:19:24.252Z,70.08
2019-03-24T01:21:54.190Z,70.05
2019-03-24T01:24:46.170Z,69.69
2019-03-24T01:30:12.827Z,69.96
2019-03-24T01:32:43.103Z,70.09
2019-03-24T01:35:52.053Z,70.08
2019-03-24T01:41:44.588Z,70.19
2019-03-24T01:47:09.171Z,70.26
2019-03-24T01:49:39.119Z,70.29
2019-03-24T01:52:09.043Z,70.30
2019-03-24T01:54:57.985Z,70.36
2019-03-24T01:57:28.265Z,70.44
2019-03-24T02:03:09.460Z,70.14
2019-03-24T02:05:40.222Z,70.10
2019-03-24T02:08:10.192Z,70.08
2019-03-24T02:10:43.194Z,70.02
2019-03-24T02:13:13.115Z,69.98
2019-03-24T02:15:43.145Z,69.76
2019-03-24T02:20:55.097Z,69.64
2019-03-24T02:23:26.125Z,69.61
2019-03-24T02:25:56.047Z,69.57
2019-03-24T02:28:25.974Z,69.59
2019-03-24T02:30:55.897Z,69.57
2019-03-24T02:33:46.973Z,69.64
2019-03-24T02:36:19.312Z,69.59
2019-03-24T02:38:49.570Z,69.52
2019-03-24T02:41:19.476Z,69.62
2019-03-24T02:43:49.458Z,69.57
2019-03-24T02:46:24.714Z,69.67
2019-03-24T02:51:26.693Z,69.75
2019-03-24T02:53:56.723Z,69.76
2019-03-24T02:56:26.643Z,69.78
2019-03-24T02:58:56.606Z,69.81
2019-03-24T03:01:26.545Z,69.68
2019-03-24T03:03:56.479Z,69.78
2019-03-24T03:06:26.486Z,69.76
2019-03-24T03:09:15.166Z,69.81
2019-03-24T03:11:45.282Z,69.85
2019-03-24T03:14:15.265Z,69.96
2019-03-24T03:16:45.307Z,70.05
2019-03-24T03:24:42.274Z,70.25
2019-03-24T03:27:12.328Z,70.37
2019-03-24T03:29:42.274Z,70.58
2019-03-24T03:32:12.198Z,70.79
2019-03-24T03:34:42.245Z,70.93
2019-03-24T03:37:31.025Z,71.16
2019-03-24T03:40:01.214Z,71.27
2019-03-24T03:42:33.429Z,71.36
2019-03-24T03:45:03.394Z,71.37
2019-03-24T03:47:33.357Z,71.53
2019-03-24T03:50:03.338Z,71.67
2019-03-24T03:52:33.386Z,71.74
2019-03-24T03:55:03.427Z,71.74
2019-03-24T03:57:33.376Z,71.69
2019-03-24T04:00:03.414Z,71.48
2019-03-24T04:05:10.191Z,71.48
2019-03-24T04:10:34.530Z,71.74
2019-03-24T04:13:04.463Z,72.15
2019-03-24T04:15:53.527Z,72.34
2019-03-24T04:18:42.336Z,72.52
2019-03-24T04:21:12.440Z,72.87
2019-03-24T04:23:46.197Z,73.21
2019-03-24T04:26:29.033Z,73.43
2019-03-24T04:28:59.194Z,73.54
2019-03-24T04:31:31.985Z,73.66
2019-03-24T04:34:01.960Z,73.83
2019-03-24T04:36:31.925Z,73.97
2019-03-24T04:39:02.080Z,74.20
2019-03-24T04:41:32.010Z,74.48
2019-03-24T04:44:01.995Z,74.61
2019-03-24T04:46:31.996Z,74.66
2019-03-24T04:49:02.004Z,74.72
2019-03-24T04:51:47.443Z,74.73
2019-03-24T04:54:05.831Z,74.88
2019-03-24T04:56:35.991Z,75.14
2019-03-24T04:59:13.880Z,75.30
2019-03-24T05:01:43.869Z,75.47
2019-03-24T05:04:13.822Z,75.63
2019-03-24T05:06:44.368Z,75.80
2019-03-24T05:12:47.890Z,76.07
2019-03-24T05:15:38.245Z,76.14
2019-03-24T05:20:43.426Z,76.06
2019-03-24T05:23:13.581Z,76.04
2019-03-24T05:25:43.810Z,76.05
2019-03-24T05:28:25.175Z,76.05
2019-03-24T05:31:03.758Z,76.08
2019-03-24T05:33:35.463Z,76.02
2019-03-24T05:36:05.539Z,75.95
2019-03-24T05:38:54.175Z,75.81
2019-03-24T05:41:24.129Z,75.75
2019-03-24T05:43:54.066Z,75.58
2019-03-24T05:46:24.032Z,75.51
2019-03-24T05:48:53.966Z,75.44
2019-03-24T05:51:26.430Z,75.27
2019-03-24T05:53:56.377Z,75.15
2019-03-24T05:56:26.396Z,75.00
2019-03-24T05:58:56.323Z,74.64
2019-03-24T06:04:02.373Z,74.26
2019-03-24T06:09:26.933Z,74.23
2019-03-24T06:12:15.733Z,74.16
2019-03-24T06:14:56.545Z,74.10
2019-03-24T06:17:26.505Z,74.02
2019-03-24T06:22:45.479Z,73.95
2019-03-24T06:25:15.397Z,73.73
2019-03-24T06:27:45.808Z,73.57
2019-03-24T06:30:16.096Z,73.34
2019-03-24T06:32:46.151Z,73.07
2019-03-24T06:35:16.219Z,72.82
2019-03-24T06:37:46.463Z,72.45
2019-03-24T06:40:35.249Z,72.45
2019-03-24T06:43:16.308Z,71.71
2019-03-24T06:45:46.517Z,71.08
2019-03-24T06:48:17.122Z,70.88
2019-03-24T06:50:47.145Z,70.19
2019-03-24T06:53:17.066Z,70.04
2019-03-24T06:55:47.081Z,69.69
2019-03-24T06:58:17.141Z,69.56
2019-03-24T07:00:53.863Z,69.33
2019-03-24T07:03:23.966Z,68.86
2019-03-24T07:05:53.932Z,68.94
2019-03-24T07:08:23.914Z,68.71
2019-03-24T07:10:53.877Z,68.39
2019-03-24T07:13:23.785Z,68.16
2019-03-24T07:16:04.278Z,67.26
2019-03-24T07:18:30.798Z,67.45
2019-03-24T07:21:01.991Z,67.29
2019-03-24T07:23:31.945Z,66.55
2019-03-24T07:26:04.329Z,66.34
2019-03-24T07:28:34.266Z,65.69
2019-03-24T07:33:50.319Z,65.28
2019-03-24T07:39:05.771Z,64.25
2019-03-24T07:44:48.413Z,62.89
2019-03-24T07:47:18.364Z,62.82
2019-03-24T07:49:48.322Z,61.95
2019-03-24T07:54:54.258Z,62.18
2019-03-24T08:06:04.693Z,60.43
2019-03-24T08:08:46.134Z,60.53
2019-03-24T08:11:16.333Z,60.22
2019-03-24T08:13:53.824Z,60.04
2019-03-24T08:16:18.088Z,59.76
2019-03-24T08:18:58.648Z,59.85
2019-03-24T08:21:28.784Z,59.97
2019-03-24T08:23:58.811Z,60.12
2019-03-24T08:26:29.215Z,59.94
2019-03-24T08:28:59.311Z,59.57
2019-03-24T08:31:29.313Z,58.97
2019-03-24T08:33:59.805Z,58.29
2019-03-24T08:36:48.495Z,57.96
2019-03-24T08:39:18.444Z,57.60
2019-03-24T08:41:48.430Z,57.59
2019-03-24T08:44:18.405Z,57.10
2019-03-24T08:46:50.760Z,56.94
2019-03-24T08:49:20.719Z,56.73
2019-03-24T08:51:51.302Z,56.30
2019-03-24T08:54:22.342Z,56.69
2019-03-24T08:59:47.019Z,55.57
2019-03-24T09:02:21.645Z,55.70
2019-03-24T09:04:51.592Z,55.43
2019-03-24T09:07:21.886Z,54.91
2019-03-24T09:09:51.858Z,54.80
2019-03-24T09:12:21.916Z,54.23
2019-03-24T09:14:51.926Z,53.44
2019-03-24T09:17:21.856Z,53.55
2019-03-24T09:20:02.295Z,53.11
2019-03-24T09:22:32.311Z,52.63
2019-03-24T09:25:02.258Z,53.29
2019-03-24T09:27:32.250Z,52.94
2019-03-24T09:30:02.190Z,51.99
2019-03-24T09:32:32.095Z,52.07
2019-03-24T09:35:02.113Z,51.96
2019-03-24T09:37:32.025Z,52.29
2019-03-24T09:40:02.022Z,52.68
2019-03-24T09:42:32.025Z,51.98
2019-03-24T09:45:02.006Z,51.49
2019-03-24T09:47:31.932Z,51.95
2019-03-24T09:50:01.903Z,52.09
2019-03-24T09:52:31.894Z,51.84
2019-03-24T09:55:01.887Z,51.96
2019-03-24T10:00:46.615Z,51.62
2019-03-24T10:03:16.674Z,51.51
2019-03-24T10:05:46.854Z,50.12
2019-03-24T10:08:16.895Z,50.07
2019-03-24T10:10:46.931Z,50.09
2019-03-24T10:13:19.434Z,50.34
2019-03-24T10:15:49.346Z,51.03
2019-03-24T10:18:19.304Z,51.35
2019-03-24T10:23:33.068Z,50.00
2019-03-24T10:28:52.295Z,49.62
2019-03-24T10:31:22.333Z,49.27
2019-03-24T10:33:52.245Z,48.31
2019-03-24T10:36:43.143Z,47.95
2019-03-24T10:39:13.220Z,47.36
2019-03-24T10:41:43.197Z,46.85
2019-03-24T10:44:13.248Z,46.75
2019-03-24T10:46:43.218Z,46.13
2019-03-24T10:49:13.134Z,46.76
2019-03-24T10:51:43.087Z,46.21
2019-03-24T10:54:12.999Z,46.88
2019-03-24T10:57:01.930Z,47.08
2019-03-24T10:59:31.891Z,46.80
2019-03-24T11:02:01.869Z,46.19
2019-03-24T11:04:32.079Z,46.75
2019-03-24T11:07:02.038Z,47.59
2019-03-24T11:09:31.962Z,46.09
2019-03-24T11:12:02.094Z,46.81
2019-03-24T11:14:32.006Z,46.04
2019-03-24T11:17:01.940Z,45.58
2019-03-24T11:19:35.901Z,45.29
2019-03-24T11:22:17.900Z,46.22
2019-03-24T11:25:08.070Z,46.30
2019-03-24T11:27:38.916Z,45.19
2019-03-24T11:30:11.577Z,45.90
2019-03-24T11:32:43.367Z,46.00
2019-03-24T11:35:33.461Z,45.92
2019-03-24T11:38:03.524Z,46.09
2019-03-24T11:40:33.704Z,45.63
2019-03-24T11:43:03.722Z,46.01
2019-03-24T11:45:36.219Z,46.17
2019-03-24T11:48:06.173Z,46.34
2019-03-24T11:50:36.171Z,46.47
2019-03-24T11:53:06.327Z,46.53
2019-03-24T11:55:55.096Z,46.73
2019-03-24T11:58:25.236Z,46.93
2019-03-24T12:00:55.283Z,46.64
2019-03-24T12:03:25.566Z,45.65
2019-03-24T12:05:55.640Z,45.93
2019-03-24T12:08:25.745Z,45.79
2019-03-24T12:10:55.685Z,45.48
2019-03-24T12:13:25.861Z,46.47
2019-03-24T12:15:55.836Z,46.06
2019-03-24T12:18:25.947Z,45.61
2019-03-24T12:20:56.039Z,45.24
2019-03-24T12:23:37.251Z,45.22
2019-03-24T12:26:07.387Z,45.55
2019-03-24T12:28:37.451Z,44.58
2019-03-24T12:31:07.403Z,45.26
2019-03-24T12:33:40.991Z,45.23
2019-03-24T12:36:10.888Z,44.89
2019-03-24T12:38:40.869Z,44.36
2019-03-24T12:43:46.704Z,43.67
2019-03-24T12:49:02.960Z,44.11
2019-03-24T12:51:32.883Z,44.28
2019-03-24T12:54:02.837Z,43.93
2019-03-24T12:59:08.446Z,44.28
2019-03-24T13:01:57.419Z,44.53
2019-03-24T13:07:41.956Z,45.06
2019-03-24T13:13:21.310Z,45.48
2019-03-24T13:15:51.265Z,45.17
2019-03-24T13:18:21.209Z,45.16
2019-03-24T13:20:51.353Z,44.63
2019-03-24T13:23:21.279Z,43.21
2019-03-24T13:25:53.395Z,43.50
2019-03-24T13:28:42.045Z,43.61
2019-03-24T13:36:48.903Z,42.44
2019-03-24T13:39:29.633Z,41.68
2019-03-24T13:42:01.045Z,42.21
2019-03-24T13:44:31.087Z,42.36
2019-03-24T13:47:01.324Z,42.42
2019-03-24T13:49:31.287Z,42.23
2019-03-24T13:52:01.506Z,42.62
2019-03-24T14:02:42.720Z,41.89
2019-03-24T14:05:01.379Z,42.00
2019-03-24T14:07:33.327Z,42.80
2019-03-24T14:10:03.489Z,43.72
2019-03-24T14:12:33.430Z,44.18
2019-03-24T14:17:54.595Z,47.58
2019-03-24T14:23:19.167Z,50.67
2019-03-24T14:28:48.662Z,51.36
2019-03-24T14:31:18.734Z,50.79
2019-03-24T14:33:48.672Z,51.05
2019-03-24T14:36:18.640Z,51.11
2019-03-24T14:39:07.597Z,51.31
2019-03-24T14:41:37.836Z,51.29
2019-03-24T14:44:07.841Z,50.57
2019-03-24T14:46:37.824Z,50.64
2019-03-24T14:49:07.976Z,50.90
2019-03-24T14:51:37.884Z,51.10
2019-03-24T14:54:07.903Z,50.74
2019-03-24T14:56:37.921Z,50.22
2019-03-24T14:59:07.972Z,49.95
2019-03-24T15:01:38.364Z,49.72
2019-03-24T15:04:08.311Z,48.16
2019-03-24T15:06:38.264Z,47.80
2019-03-24T15:09:08.908Z,47.89
2019-03-24T15:11:40.735Z,47.68
2019-03-24T15:14:10.773Z,48.09
2019-03-24T15:16:49.914Z,47.93
2019-03-24T15:22:04.646Z,48.06
2019-03-24T15:24:34.585Z,47.09
2019-03-24T15:27:04.684Z,45.07
2019-03-24T15:29:34.727Z,45.96
2019-03-24T15:32:16.675Z,46.20
2019-03-24T15:35:05.689Z,46.49
2019-03-24T15:43:07.808Z,48.48
2019-03-24T15:45:48.677Z,49.91
2019-03-24T15:48:18.674Z,49.98
2019-03-24T15:50:48.632Z,50.29
2019-03-24T15:53:37.423Z,49.96
2019-03-24T15:56:10.435Z,50.91
2019-03-24T16:01:16.179Z,51.14
2019-03-24T16:03:46.282Z,51.75
2019-03-24T16:06:36.502Z,52.28
2019-03-24T16:09:08.326Z,52.77
2019-03-24T16:11:38.295Z,53.31
2019-03-24T16:14:08.235Z,53.63
2019-03-24T16:16:38.189Z,53.92
2019-03-24T16:19:08.106Z,53.94
2019-03-24T16:21:56.689Z,53.67
2019-03-24T16:24:26.843Z,53.71
2019-03-24T16:26:56.749Z,53.42
2019-03-24T16:29:26.857Z,52.91
2019-03-24T16:31:56.803Z,52.55
2019-03-24T16:34:26.727Z,51.96
2019-03-24T16:36:59.514Z,51.70
2019-03-24T16:39:29.421Z,51.89
2019-03-24T16:41:59.371Z,51.86
2019-03-24T16:44:30.021Z,51.46
2019-03-24T16:47:01.535Z,51.92
2019-03-24T16:49:31.566Z,51.95
2019-03-24T16:52:01.800Z,52.41
2019-03-24T16:54:31.831Z,52.77
2019-03-24T16:57:02.804Z,53.32
2019-03-24T16:59:32.760Z,53.78
2019-03-24T17:02:02.719Z,54.34
2019-03-24T17:04:32.631Z,54.89
2019-03-24T17:07:03.340Z,55.42
2019-03-24T17:09:33.267Z,55.93
2019-03-24T17:12:03.380Z,56.70
2019-03-24T17:14:33.379Z,57.16
2019-03-24T17:17:07.011Z,57.59
2019-03-24T17:19:37.127Z,58.00
2019-03-24T17:22:25.591Z,58.36
2019-03-24T17:24:42.706Z,58.58
2019-03-24T17:30:01.908Z,59.08
2019-03-24T17:33:10.862Z,58.94
2019-03-24T17:35:52.135Z,59.26
2019-03-24T17:41:35.756Z,60.03
2019-03-24T17:44:06.357Z,60.55
2019-03-24T17:46:36.445Z,60.93
2019-03-24T17:49:06.678Z,61.07
2019-03-24T17:51:36.613Z,61.27
2019-03-24T17:54:07.994Z,61.32
2019-03-24T17:56:40.922Z,61.31
2019-03-24T17:59:11.292Z,61.30
2019-03-24T18:04:30.340Z,61.37
2019-03-24T18:07:00.303Z,61.57
2019-03-24T18:09:30.776Z,61.83
2019-03-24T18:12:00.815Z,62.20
2019-03-24T18:14:31.194Z,62.46
2019-03-24T18:17:01.094Z,63.21
2019-03-24T18:19:31.316Z,63.62
2019-03-24T18:22:11.226Z,64.07
2019-03-24T18:24:33.985Z,64.40
2019-03-24T18:27:04.047Z,64.62
2019-03-24T18:29:34.061Z,64.65
2019-03-24T18:32:04.079Z,64.70
2019-03-24T18:34:34.121Z,65.46
2019-03-24T18:39:59.083Z,69.02
2019-03-24T18:42:29.170Z,69.02
2019-03-24T18:44:59.114Z,69.74
2019-03-24T18:47:32.326Z,70.14
2019-03-24T18:50:21.019Z,70.88
2019-03-24T18:52:50.982Z,70.88
2019-03-24T18:55:28.724Z,71.15
2019-03-24T18:57:58.882Z,71.28
2019-03-24T19:00:28.920Z,71.53
2019-03-24T19:02:58.973Z,71.65
2019-03-24T19:05:29.263Z,71.78
2019-03-24T19:07:59.191Z,71.98
2019-03-24T19:10:29.213Z,72.34
2019-03-24T19:12:59.287Z,72.59
2019-03-24T19:15:30.426Z,72.83
2019-03-24T19:18:00.620Z,73.05
2019-03-24T19:20:50.950Z,73.21
2019-03-24T19:23:20.904Z,73.26
2019-03-24T19:25:50.850Z,73.56
2019-03-24T19:28:39.746Z,74.21
2019-03-24T19:37:22.266Z,74.21
2019-03-24T19:40:04.123Z,74.36
2019-03-24T19:42:34.124Z,74.72
2019-03-24T19:45:04.225Z,74.82
2019-03-24T19:47:34.140Z,74.93
2019-03-24T19:50:04.145Z,74.91
2019-03-24T19:52:44.134Z,75.09
2019-03-24T19:55:06.722Z,75.10
2019-03-24T20:00:22.419Z,75.18
2019-03-24T20:02:53.357Z,74.99
2019-03-24T20:05:38.183Z,74.90
2019-03-24T20:07:55.786Z,75.05
2019-03-24T20:10:37.048Z,75.30
2019-03-24T20:13:07.197Z,75.20
2019-03-24T20:15:39.217Z,75.29
2019-03-24T20:18:09.148Z,75.59
2019-03-24T20:20:39.263Z,75.62
2019-03-24T20:23:09.212Z,75.42
2019-03-24T20:25:58.053Z,75.44
2019-03-24T20:34:23.291Z,75.73
2019-03-24T20:39:36.962Z,75.93
2019-03-24T20:42:07.134Z,76.29
2019-03-24T20:44:39.144Z,76.39
2019-03-24T20:47:08.437Z,76.38
2019-03-24T20:49:38.489Z,76.34
2019-03-24T20:54:57.379Z,76.20
2019-03-24T20:57:27.292Z,76.19
2019-03-24T20:59:57.222Z,76.13
2019-03-24T21:02:27.276Z,76.15
2019-03-24T21:04:59.135Z,76.23
2019-03-24T21:07:47.980Z,76.30
2019-03-24T21:10:18.021Z,76.30
2019-03-24T21:12:48.068Z,76.00
2019-03-24T21:15:18.200Z,75.89
2019-03-24T21:17:50.221Z,75.82
2019-03-24T21:20:20.132Z,75.73
2019-03-24T21:22:50.206Z,75.81
2019-03-24T21:25:20.113Z,75.95
2019-03-24T21:27:50.027Z,76.03
2019-03-24T21:30:59.175Z,76.20
2019-03-24T21:36:20.180Z,76.61
2019-03-24T21:38:50.110Z,76.80
2019-03-24T21:41:20.079Z,76.90
2019-03-24T21:43:50.052Z,77.32
2019-03-24T21:46:20.011Z,77.53
2019-03-24T21:48:49.932Z,77.81
2019-03-24T21:51:19.903Z,77.97
2019-03-24T21:53:49.965Z,78.13
2019-03-24T21:56:19.922Z,78.08
2019-03-24T21:58:50.101Z,78.01
2019-03-24T22:01:20.121Z,77.94
2019-03-24T22:04:04.701Z,77.83
2019-03-24T22:09:42.681Z,77.54
2019-03-24T22:12:13.049Z,77.31
2019-03-24T22:14:42.963Z,77.09
2019-03-24T22:17:13.251Z,76.92
2019-03-24T22:19:43.177Z,76.76
2019-03-24T22:22:15.787Z,76.58
2019-03-24T22:24:45.923Z,76.48
2019-03-24T22:27:18.735Z,76.27
2019-03-24T22:29:48.828Z,76.16
2019-03-24T22:34:56.964Z,75.89
2019-03-24T22:37:38.810Z,75.89
2019-03-24T22:43:04.537Z,75.52
2019-03-24T22:45:34.438Z,75.54
2019-03-24T22:48:04.471Z,75.47
2019-03-24T22:50:34.440Z,75.25
2019-03-24T22:53:07.152Z,75.25
2019-03-24T22:55:39.132Z,75.26
2019-03-24T22:58:09.132Z,75.38
2019-03-24T23:00:57.962Z,75.09
2019-03-24T23:03:28.011Z,75.09
2019-03-24T23:05:57.936Z,75.39
2019-03-24T23:08:27.843Z,75.40
2019-03-24T23:10:57.752Z,75.28
2019-03-24T23:13:27.674Z,75.15
2019-03-24T23:15:57.631Z,75.17
2019-03-24T23:18:27.560Z,75.24
2019-03-24T23:20:57.500Z,75.59
2019-03-24T23:23:27.601Z,75.73
2019-03-24T23:25:57.512Z,76.17
2019-03-24T23:28:27.490Z,76.16
2019-03-24T23:30:57.395Z,76.38
2019-03-24T23:33:27.297Z,76.27
2019-03-24T23:35:57.258Z,76.11
2019-03-24T23:38:38.323Z,76.00
2019-03-24T23:41:09.343Z,75.89
2019-03-24T23:43:39.347Z,75.89
2019-03-24T23:46:09.331Z,75.73
2019-03-24T23:51:28.222Z,75.57
2019-03-24T23:53:58.223Z,75.49
2019-03-24T23:56:49.215Z,75.36
2019-03-24T23:59:19.438Z,75.39
